Monticello, Maine
46° 20' 20"N, 67° 53' 10"W, Elevation 575 ft.
Eastern Time

Hourly observations for the last 48 hours

Date

Time

Temperature (F) Humi-
dity
(%)
Wind
(mph)
Pressure Rain (in) Sun
(W/m2)
UV ET
(in)
Air Dew 6 Hour 1 Hr 3 Hr 6 Hr Day
Alt
(in)
Sea
Level
(mb)
Max Min
8 15:00 40.1 33.1 76 S 4 G 4 30.34 1027.4 0.00 512 2.6 0.016
8 14:00 40.1 33.1 76 S 4 G 4 30.34 1027.4 0.00 512 2.6 0.016
8 13:00 40.1 33.1 40.1 40.1 76 S 4 G 4 30.34 1027.4 0.00 512 2.6 0.016
8 12:00 40.1 33.1 76 S 4 G 4 30.34 1027.4 0.00 512 2.6 0.016
8 11:00 40.1 33.1 76 S 4 G 4 30.34 1027.4 0.00 512 2.6 0.016
8 10:00 40.1 33.1 76 S 4 G 4 30.34 1027.4 0.00 512 2.6 0.016
8 09:00 40.1 33.1 76 S 4 G 4 30.34 1027.4 0.00 512 2.6 0.016
8 08:00 40.1 33.1 76 S 4 G 4 30.34 1027.4 0.00 512 2.6 0.016
8 07:00 40.1 33.1 40.1 40.1 76 S 4 G 4 30.34 1027.4 0.00 512 2.6 0.016
8 06:00 40.1 33.1 76 S 4 G 4 30.34 1027.4 0.00 512 2.6 0.016
8 05:00 40.1 33.1 76 S 4 G 4 30.34 1027.4 0.00 512 2.6 0.016
8 04:00 40.1 33.1 76 S 4 G 4 30.34 1027.4 0.00 512 2.6 0.016
8 03:00 40.1 33.1 76 S 4 G 4 30.34 1027.4 0.00 512 2.6 0.016
8 02:00 40.1 33.1 76 S 4 G 4 30.34 1027.4 0.00 512 2.6 0.016
8 01:00 40.1 33.1 40.1 40.1 76 S 4 G 4 30.34 1027.4 0.00 512 2.6 0.016
8 00:00 40.1 33.1 76 S 4 G 4 30.34 1027.4 0.00 512 2.6 0.016
7 23:00 40.1 33.1 76 S 4 G 4 30.34 1027.4 0.00 512 2.6 0.016
7 22:00 40.1 33.1 76 S 4 G 4 30.34 1027.4 0.00 512 2.6 0.016
7 21:00 40.1 33.1 76 S 4 G 4 30.34 1027.4 0.00 512 2.6 0.016
7 20:00 40.1 33.1 76 S 4 G 4 30.34 1027.4 0.00 512 2.6 0.016
7 19:00 40.1 33.1 40.1 40.1 76 S 4 G 4 30.34 1027.4 0.00 512 2.6 0.016
7 18:00 40.1 33.1 76 S 4 G 4 30.34 1027.4 0.00 512 2.6 0.016
7 17:00 40.1 33.1 76 S 4 G 4 30.34 1027.4 0.00 512 2.6 0.016
7 16:00 40.1 33.1 76 S 4 G 4 30.34 1027.4 0.00 512 2.6 0.016
7 15:00 40.1 33.1 76 S 4 G 4 30.34 1027.4 0.00 512 2.6 0.016
7 14:00 40.1 33.1 76 S 4 G 4 30.34 1027.4 0.00 512 2.6 0.016
7 13:00 40.1 33.1 40.1 26.7 76 S 4 G 4 30.34 1027.4 0.00 512 2.6 0.016
7 12:00 40.1 33.1 76 S 4 G 4 30.34 1027.4 0.00 512 2.6 0.016
7 11:00 39.1 33.5 80 SSE 7 G 10 30.35 1027.9 0.00 548 2.7 0.009
7 10:00 35.2 31.1 85 S 6 G 9 30.39 1029.1 0.00 135 1.7 0.005
7 09:00 33.4 29.7 86 S 3 G 6 30.40 1029.4 0.00 77 1.1 0.002
7 08:00 30.4 28.9 94 SW 2 G 5 30.40 1029.5 0.00 246 0.5 0.000
7 07:00 26.7 23.9 32.1 26.7 89 Calm 30.40 1029.4 0.00 25 0.0 0.000
7 06:00 28.8 25.4 87 Calm 30.38 1029.0 0.00 0 0.0 0.000
7 05:00 30.9 28.6 91 N 1 G 3 30.38 1028.9 0.00 0 0.0 0.000
7 04:00 30.9 28.3 90 N 1 G 4 30.37 1028.5 0.00 0 0.0 0.000
7 03:00 31.0 28.4 90 NNW 3 G 6 30.37 1028.5 0.00 0 0.0 0.000
7 02:00 31.2 28.6 90 N 4 G 7 30.36 1028.3 0.00 0 0.0 0.000
7 01:00 32.1 30.3 36.6 32.1 93 N 7 G 12 30.35 1027.9 0.02 0.04 0.00 0 0.0 0.000
7 00:00 32.7 31.2 94 N 4 G 6 30.35 1028.0 0.01 0.00 0 0.0 0.037
6 23:00 33.2 31.7 94 N 5 G 7 30.35 1027.7 0.01 0.04 0 0.0 0.037
6 22:00 33.5 31.7 93 N 4 G 5 30.33 1027.3 0.02 0.02 0.03 0 0.0 0.037
6 21:00 35.8 32.3 87 NNE 7 G 10 30.32 1026.7 0.01 0 0.0 0.036
6 20:00 36.0 32.2 86 N 7 G 10 30.32 1026.7 0.01 0 0.0 0.035
6 19:00 36.6 31.0 42.8 36.6 80 N 2 G 5 30.30 1025.9 0.01 0 0.0 0.034
6 18:00 37.3 30.4 76 N 5 G 11 30.27 1025.2 0.01 0 0.0 0.033
6 17:00 37.2 31.0 78 N 0 G 3 30.24 1024.1 0.01 0 0.0 0.033
6 16:00 38.5 30.3 72 NNE 2 G 6 30.21 1023.1 0.01 5 0.0 0.032

Data generated by WxSolution Version 1.7.7.1, Build 2007.11.05.